Time;durP1;ratioP1;P1;durP2;ratioP2;P2;SDS_P1;SDS_P2;PMS_P1;PMS_P2;Temp;Humidity;BMP_temperature;BMP_pressure;BME280_temperature;BME280_humidity;BME280_pressure;Samples;Min_cycle;Max_cycle;Signal;HPM_P1;HPM_P2
2023/09/01 00:00:15;;;;;;;;;;;19.10;59.90;;;15.10;95.69;95550.25;5010364;28;19925;-53
2023/09/01 00:02:41;;;;;;;;;;;19.10;59.90;;;15.07;95.87;95555.41;5010975;28;19966;-50
2023/09/01 00:05:08;;;;;;;;;;;19.10;59.80;;;14.98;96.45;95548.06;5011325;28;20007;-54
2023/09/01 00:07:34;;;;;;;;;;;19.10;59.70;;;14.94;95.43;95552.38;5010008;28;19964;-52
2023/09/01 00:10:00;;;;;;;;;;;19.00;59.60;;;14.90;96.53;95550.59;5011514;28;20361;-54
2023/09/01 00:12:26;;;;;;;;;;;19.00;59.60;;;14.88;96.26;95550.06;5010579;28;19909;-53
2023/09/01 00:14:53;;;;;;;;;;;19.00;59.70;;;14.87;96.05;95553.84;5010972;28;19912;-48
2023/09/01 00:17:18;;;;;;;;;;;19.00;59.70;;;14.85;94.33;95550.66;5010895;28;19909;-54
2023/09/01 00:19:44;;;;;;;;;;;19.00;59.80;;;14.92;94.39;95551.09;5009894;28;19909;-52
2023/09/01 00:22:10;;;;;;;;;;;19.00;59.80;;;14.96;95.26;95554.78;5011218;28;20379;-52
2023/09/01 00:24:37;;;;;;;;;;;19.00;59.80;;;14.96;94.40;95549.44;5010199;28;20268;-50
2023/09/01 00:27:03;;;;;;;;;;;19.00;59.80;;;14.95;95.68;95547.84;5010774;28;19909;-51
2023/09/01 00:29:33;;;;;;;;;;;19.00;59.70;;;14.90;95.49;95550.59;5011089;28;19995;-53
2023/09/01 00:31:59;;;;;;;;;;;19.00;59.70;;;14.83;97.56;95540.25;5009032;28;19920;-49
2023/09/01 00:34:25;;;;;;;;;;;19.00;59.60;;;14.78;97.59;95545.66;5011072;28;19909;-49
2023/09/01 00:36:52;;;;;;;;;;;18.90;59.60;;;14.74;97.69;95539.31;5009931;28;20390;-48
2023/09/01 00:39:17;;;;;;;;;;;18.90;59.70;;;14.74;97.68;95547.34;5010836;28;19916;-49
2023/09/01 00:41:43;;;;;;;;;;;18.90;59.70;;;14.75;97.01;95539.00;5010754;28;19913;-48
2023/09/01 00:44:13;;;;;;;;;;;18.90;59.80;;;14.76;95.93;95537.13;5008829;28;19913;-52
2023/09/01 00:46:46;;;;;;;;;;;18.90;60.50;;;14.84;93.74;95544.50;5010415;28;19924;-51
2023/09/01 00:49:16;;;;;;;;;;;18.90;59.90;;;14.94;94.21;95544.34;5010451;28;19913;-53
2023/09/01 00:51:46;;;;;;;;;;;19.00;59.90;;;15.02;93.73;95540.22;5009431;28;20386;-50
2023/09/01 00:54:14;;;;;;;;;;;19.00;59.90;;;15.09;91.84;95539.81;5013210;28;19932;-50
2023/09/01 00:56:41;;;;;;;;;;;19.10;59.90;;;15.14;91.29;95543.22;5012226;28;19959;-52
2023/09/01 00:59:07;;;;;;;;;;;19.10;59.90;;;15.20;90.64;95539.38;5010613;28;19956;-50
2023/09/01 01:01:34;;;;;;;;;;;19.20;59.80;;;15.31;89.82;95541.88;5009937;28;20375;-49
2023/09/01 01:04:07;;;;;;;;;;;19.30;59.80;;;15.40;88.88;95532.03;5010763;28;19956;-53
2023/09/01 01:06:43;;;;;;;;;;;19.30;59.80;;;15.47;88.31;95541.28;5009645;28;20011;-51
2023/09/01 01:09:25;;;;;;;;;;;19.40;59.70;;;15.54;87.48;95535.53;5005530;28;19960;-50
2023/09/01 01:12:22;;;;;;;;;;;19.40;59.60;;;15.62;86.95;95539.44;5008489;28;20042;-50
2023/09/01 01:14:55;;;;;;;;;;;19.50;59.50;;;15.67;86.94;95532.13;5010851;28;19916;-50
2023/09/01 01:17:22;;;;;;;;;;;19.50;59.50;;;15.69;87.18;95523.75;5010392;28;19909;-52
2023/09/01 01:20:03;;;;;;;;;;;19.60;59.40;;;15.70;87.66;95522.66;5022346;28;20011;-55
2023/09/01 01:22:40;;;;;;;;;;;19.60;59.30;;;15.73;87.97;95522.03;5005718;28;19919;-52
2023/09/01 01:25:11;;;;;;;;;;;19.60;59.20;;;15.71;88.15;95519.69;5008783;28;20392;-49
2023/09/01 01:27:41;;;;;;;;;;;19.60;59.20;;;15.70;88.63;95520.78;5003968;28;19909;-48
2023/09/01 01:30:09;;;;;;;;;;;19.70;59.20;;;15.69;88.90;95521.06;5009814;28;19932;-53
2023/09/01 01:32:36;;;;;;;;;;;19.70;59.20;;;15.64;89.86;95526.50;5013605;28;20047;-51
2023/09/01 01:35:35;;;;;;;;;;;19.60;59.10;;;15.64;90.49;95530.00;5014230;28;19909;-51
2023/09/01 01:38:23;;;;;;;;;;;19.60;59.10;;;15.59;91.38;95538.13;5006044;28;19954;-55
2023/09/01 01:40:53;;;;;;;;;;;19.60;59.10;;;15.54;91.70;95529.38;5011959;28;20287;-52
2023/09/01 01:43:26;;;;;;;;;;;19.60;59.10;;;15.56;92.02;95525.31;5008741;28;19920;-43
2023/09/01 01:45:54;;;;;;;;;;;19.60;59.10;;;15.55;92.16;95522.94;5012421;28;20259;-49
2023/09/01 01:48:20;;;;;;;;;;;19.60;59.10;;;15.52;92.26;95521.63;5011850;28;19909;-43
2023/09/01 01:50:46;;;;;;;;;;;19.60;59.10;;;15.48;93.14;95524.13;5013979;28;20405;-44
2023/09/01 01:53:13;;;;;;;;;;;19.60;59.10;;;15.45;93.85;95527.38;5013583;28;19920;-44
2023/09/01 01:55:38;;;;;;;;;;;19.50;59.10;;;15.40;94.81;95524.00;5012836;28;20268;-50
2023/09/01 01:58:07;;;;;;;;;;;19.50;59.10;;;15.40;95.46;95532.03;5013161;28;19975;-46
2023/09/01 02:00:33;;;;;;;;;;;19.50;59.20;;;15.38;95.72;95531.53;5009473;28;19935;-44
2023/09/01 02:02:59;;;;;;;;;;;19.50;59.20;;;15.34;96.35;95525.97;5013524;28;19917;-46
2023/09/01 02:05:25;;;;;;;;;;;19.40;59.30;;;15.33;96.23;95516.34;5013484;28;20384;-45
2023/09/01 02:07:51;;;;;;;;;;;19.40;59.40;;;15.31;96.23;95521.19;5012338;28;19909;-48
2023/09/01 02:10:17;;;;;;;;;;;19.40;59.40;;;15.32;96.28;95521.97;5012483;28;19916;-44
2023/09/01 02:12:44;;;;;;;;;;;19.40;59.40;;;15.28;96.88;95521.78;5012742;28;19909;-47
2023/09/01 02:15:10;;;;;;;;;;;19.40;59.60;;;15.26;96.63;95524.78;5012171;28;19924;-49
2023/09/01 02:17:36;;;;;;;;;;;19.40;59.50;;;15.22;97.61;95521.06;5013019;28;20432;-49
2023/09/01 02:20:16;;;;;;;;;;;19.40;59.50;;;15.20;97.48;95511.75;5012503;28;20011;-44
2023/09/01 02:22:45;;;;;;;;;;;19.40;59.50;;;15.15;97.81;95525.25;5013384;28;19917;-46
2023/09/01 02:25:14;;;;;;;;;;;19.40;59.60;;;15.14;98.75;95524.44;5016561;28;19909;-44
2023/09/01 02:27:41;;;;;;;;;;;19.40;59.60;;;15.12;98.43;95523.16;5011718;28;20248;-47
2023/09/01 02:30:10;;;;;;;;;;;19.30;59.60;;;15.15;98.76;95530.59;5012332;28;20407;-44
2023/09/01 02:32:38;;;;;;;;;;;19.30;59.60;;;15.13;100.00;95530.88;5013364;28;19916;-44
2023/09/01 02:35:08;;;;;;;;;;;19.30;59.60;;;15.09;99.75;95529.88;5012014;28;19936;-47
2023/09/01 02:37:37;;;;;;;;;;;19.30;59.70;;;15.07;99.40;95534.75;5011918;28;20482;-48
2023/09/01 02:40:13;;;;;;;;;;;19.20;59.60;;;15.05;99.06;95528.91;5013230;28;19909;-44
2023/09/01 02:42:40;;;;;;;;;;;19.20;59.70;;;15.02;98.77;95529.47;5011411;28;19913;-47
2023/09/01 02:45:09;;;;;;;;;;;19.20;59.70;;;14.95;100.00;95518.34;5013556;28;20430;-44
2023/09/01 02:47:35;;;;;;;;;;;19.20;59.70;;;14.90;100.00;95515.72;5012871;28;19909;-44
2023/09/01 02:50:04;;;;;;;;;;;19.10;59.70;;;14.84;100.00;95516.91;5012334;28;19916;-48
2023/09/01 02:52:31;;;;;;;;;;;19.10;59.80;;;14.77;100.00;95519.97;5012601;28;19916;-47
2023/09/01 02:54:56;;;;;;;;;;;19.10;59.80;;;14.68;100.00;95517.13;5003877;28;19932;-47
2023/09/01 02:57:23;;;;;;;;;;;19.00;59.80;;;14.62;100.00;95517.50;5009485;28;19917;-51
2023/09/01 02:59:50;;;;;;;;;;;18.90;59.80;;;14.54;100.00;95519.78;5012740;28;19917;-51
2023/09/01 03:02:15;;;;;;;;;;;18.90;59.90;;;14.50;100.00;95518.72;5011668;28;19952;-50
2023/09/01 03:04:41;;;;;;;;;;;18.80;59.90;;;14.46;100.00;95523.06;5012531;28;20399;-49
2023/09/01 03:07:07;;;;;;;;;;;18.70;60.00;;;14.39;100.00;95521.84;5011142;28;19909;-45
2023/09/01 03:09:33;;;;;;;;;;;18.70;60.10;;;14.28;100.00;95521.97;5012477;28;19961;-48
2023/09/01 03:11:58;;;;;;;;;;;18.60;60.10;;;14.24;100.00;95518.28;5012872;28;19909;-49
2023/09/01 03:14:24;;;;;;;;;;;18.50;60.10;;;14.19;100.00;95515.66;5022096;28;19920;-48
2023/09/01 03:16:50;;;;;;;;;;;18.50;60.30;;;14.13;100.00;95514.13;5011783;28;19909;-43
2023/09/01 03:19:16;;;;;;;;;;;18.40;60.40;;;14.05;100.00;95515.59;5011603;28;20003;-44
2023/09/01 03:21:42;;;;;;;;;;;18.30;60.40;;;13.98;100.00;95511.69;5012167;28;20016;-46
2023/09/01 03:24:08;;;;;;;;;;;18.30;60.60;;;13.89;100.00;95509.63;5013819;28;19999;-45
2023/09/01 03:26:33;;;;;;;;;;;18.20;60.60;;;13.77;100.00;95508.44;5015402;28;19909;-49
2023/09/01 03:29:02;;;;;;;;;;;18.10;60.70;;;13.72;100.00;95503.94;5012029;28;20406;-45
2023/09/01 03:31:28;;;;;;;;;;;18.00;60.80;;;13.66;100.00;95510.44;5011380;28;19909;-48
2023/09/01 03:33:54;;;;;;;;;;;18.00;61.80;;;13.57;100.00;95502.25;5012014;28;20272;-48
2023/09/01 03:36:20;;;;;;;;;;;17.90;61.00;;;13.50;100.00;95500.97;5010652;28;19909;-47
2023/09/01 03:38:48;;;;;;;;;;;17.80;61.10;;;13.39;100.00;95501.09;5011868;28;20045;-45
2023/09/01 03:41:13;;;;;;;;;;;17.70;61.20;;;13.33;100.00;95496.88;5012105;28;20276;-49
2023/09/01 03:43:39;;;;;;;;;;;17.60;61.30;;;13.25;100.00;95492.16;5009822;28;19917;-46
2023/09/01 03:46:05;;;;;;;;;;;17.50;61.30;;;13.12;100.00;95495.47;5011740;28;19909;-51
2023/09/01 03:48:32;;;;;;;;;;;17.50;61.50;;;13.09;100.00;95502.16;5016377;28;19995;-44
2023/09/01 03:51:16;;;;;;;;;;;17.40;61.60;;;13.08;100.00;95499.78;5014396;28;20083;-45
2023/09/01 03:53:42;;;;;;;;;;;17.30;61.80;;;13.00;100.00;95501.19;5011458;28;19913;-46
2023/09/01 03:56:15;;;;;;;;;;;17.20;61.80;;;12.95;100.00;95502.03;5010470;28;20000;-43
2023/09/01 03:58:41;;;;;;;;;;;17.20;62.00;;;12.87;100.00;95496.50;5011240;28;20380;-46
2023/09/01 04:01:08;;;;;;;;;;;17.10;62.00;;;12.77;100.00;95500.06;5013336;28;20326;-44
2023/09/01 04:03:35;;;;;;;;;;;17.00;62.10;;;12.71;100.00;95504.63;5011235;28;19916;-48
2023/09/01 04:06:03;;;;;;;;;;;17.00;62.30;;;12.67;100.00;95500.94;5010668;28;19920;-47
2023/09/01 04:08:29;;;;;;;;;;;16.90;62.30;;;12.60;100.00;95502.34;5011215;28;19952;-46
2023/09/01 04:10:55;;;;;;;;;;;16.80;62.30;;;12.56;100.00;95504.75;5011446;28;19916;-44
2023/09/01 04:13:21;;;;;;;;;;;16.80;62.40;;;12.49;100.00;95505.06;5010488;28;19924;-44
2023/09/01 04:15:47;;;;;;;;;;;16.70;62.50;;;12.44;100.00;95501.63;5011529;28;19908;-44
2023/09/01 04:18:13;;;;;;;;;;;16.70;62.60;;;12.38;100.00;95505.41;5010062;28;19920;-44
2023/09/01 04:20:38;;;;;;;;;;;16.60;62.70;;;12.35;100.00;95508.66;5011450;28;20338;-47
2023/09/01 04:23:05;;;;;;;;;;;16.60;62.80;;;12.26;100.00;95505.75;5011349;28;19913;-46
2023/09/01 04:25:33;;;;;;;;;;;16.50;62.80;;;12.19;100.00;95502.59;5009361;28;19913;-51
2023/09/01 04:27:59;;;;;;;;;;;16.50;62.90;;;12.20;100.00;95506.88;5010532;28;20536;-44
2023/09/01 04:30:25;;;;;;;;;;;16.40;63.00;;;12.15;100.00;95502.34;5010406;28;19913;-44
2023/09/01 04:32:50;;;;;;;;;;;16.40;63.10;;;12.10;100.00;95502.38;5011203;28;19948;-44
2023/09/01 04:35:16;;;;;;;;;;;16.30;63.20;;;12.03;100.00;95509.88;5011270;28;20337;-49
2023/09/01 04:37:42;;;;;;;;;;;16.30;63.20;;;11.99;100.00;95503.50;5010369;28;19971;-44
2023/09/01 04:40:09;;;;;;;;;;;16.30;63.30;;;12.03;100.00;95501.88;5011208;28;20389;-51
2023/09/01 04:42:35;;;;;;;;;;;16.30;63.50;;;12.03;100.00;95515.22;5013237;28;19982;-52
2023/09/01 04:45:00;;;;;;;;;;;16.30;63.50;;;12.01;100.00;95512.84;5010960;28;19909;-54
2023/09/01 04:47:27;;;;;;;;;;;16.30;63.60;;;12.00;100.00;95526.44;5010361;28;19909;-55
2023/09/01 04:49:53;;;;;;;;;;;16.30;63.70;;;11.98;100.00;95518.72;5017356;28;19909;-53
2023/09/01 04:52:18;;;;;;;;;;;16.30;63.70;;;12.04;100.00;95522.97;5011024;28;19919;-51
2023/09/01 04:54:44;;;;;;;;;;;16.30;63.80;;;12.04;100.00;95514.97;5009451;28;19909;-51
2023/09/01 04:57:10;;;;;;;;;;;16.30;63.80;;;12.06;100.00;95516.53;5022883;23;19901;-48
2023/09/01 04:59:36;;;;;;;;;;;16.30;63.90;;;12.06;100.00;95514.66;5029320;28;19924;-46
2023/09/01 05:02:01;;;;;;;;;;;16.40;63.90;;;12.10;100.00;95515.75;5029615;28;19956;-47
2023/09/01 05:04:27;;;;;;;;;;;16.40;64.00;;;12.07;100.00;95518.16;5030921;28;20015;-46
2023/09/01 05:06:53;;;;;;;;;;;16.40;64.00;;;12.09;100.00;95516.78;5032695;28;19915;-47
2023/09/01 05:09:19;;;;;;;;;;;16.40;64.00;;;12.12;100.00;95515.44;5004136;28;19909;-46
2023/09/01 05:11:45;;;;;;;;;;;16.40;64.00;;;12.13;100.00;95509.84;5025736;28;20271;-48
2023/09/01 05:14:11;;;;;;;;;;;16.50;64.10;;;12.15;100.00;95518.38;5020191;28;19908;-47
2023/09/01 05:16:36;;;;;;;;;;;16.50;64.10;;;12.22;100.00;95512.72;5034933;28;20287;-49
2023/09/01 05:19:03;;;;;;;;;;;16.50;64.20;;;12.27;100.00;95515.38;5032324;28;19955;-46
2023/09/01 05:21:28;;;;;;;;;;;16.60;64.30;;;12.30;100.00;95509.47;5024712;28;20011;-46
2023/09/01 05:23:54;;;;;;;;;;;16.60;64.30;;;12.38;100.00;95518.75;5019414;28;20024;-48
2023/09/01 05:26:20;;;;;;;;;;;16.70;64.40;;;12.43;100.00;95516.84;5036758;28;19912;-46
2023/09/01 05:28:46;;;;;;;;;;;16.70;64.30;;;12.47;100.00;95522.44;5029857;28;20361;-48
2023/09/01 05:31:11;;;;;;;;;;;16.80;64.30;;;12.51;100.00;95515.50;5035380;28;19923;-47
2023/09/01 05:33:37;;;;;;;;;;;16.90;64.30;;;12.55;100.00;95519.19;5029971;28;19912;-46
2023/09/01 05:36:04;;;;;;;;;;;17.00;64.30;;;12.61;100.00;95525.31;5022336;28;19909;-47
2023/09/01 05:38:29;;;;;;;;;;;17.10;64.40;;;12.68;100.00;95521.22;5027670;28;20023;-47
2023/09/01 05:40:57;;;;;;;;;;;17.10;64.30;;;12.74;100.00;95522.00;5026599;28;19955;-46
2023/09/01 05:43:23;;;;;;;;;;;17.20;64.30;;;12.77;100.00;95526.78;5031825;28;20298;-47
2023/09/01 05:45:49;;;;;;;;;;;17.30;64.20;;;12.84;100.00;95527.25;5033566;28;20039;-48
2023/09/01 05:48:15;;;;;;;;;;;17.40;64.10;;;12.90;100.00;95538.69;5029173;28;20075;-47
2023/09/01 05:50:42;;;;;;;;;;;17.50;64.10;;;12.98;100.00;95537.31;5030014;28;19909;-47
2023/09/01 05:53:09;;;;;;;;;;;17.60;64.00;;;13.05;100.00;95540.47;5020270;28;19916;-47
2023/09/01 05:55:36;;;;;;;;;;;17.70;64.00;;;13.12;100.00;95540.91;5032658;28;19924;-48
2023/09/01 05:58:02;;;;;;;;;;;17.70;63.80;;;13.17;100.00;95538.22;5026516;28;19983;-49
2023/09/01 06:00:31;;;;;;;;;;;17.80;63.80;;;13.23;100.00;95539.75;5025923;28;20362;-47
2023/09/01 06:02:58;;;;;;;;;;;18.00;63.80;;;13.28;100.00;95545.06;5033152;28;20018;-46
2023/09/01 06:05:23;;;;;;;;;;;18.00;63.60;;;13.42;100.00;95547.91;5019870;28;19909;-47
2023/09/01 06:07:49;;;;;;;;;;;18.20;63.70;;;13.50;100.00;95552.63;5011055;28;20372;-49
2023/09/01 06:10:15;;;;;;;;;;;18.30;63.60;;;13.68;100.00;95555.66;5026286;28;20429;-48
2023/09/01 06:12:42;;;;;;;;;;;18.40;63.50;;;13.85;100.00;95559.50;5038822;28;19919;-53
2023/09/01 06:15:08;;;;;;;;;;;18.60;63.40;;;14.02;100.00;95564.38;5021631;28;19916;-53
2023/09/01 06:17:34;;;;;;;;;;;18.80;63.40;;;14.16;100.00;95566.34;5019587;28;19940;-48
2023/09/01 06:20:00;;;;;;;;;;;18.90;63.30;;;14.28;100.00;95572.06;5031279;28;19941;-50
2023/09/01 06:22:26;;;;;;;;;;;19.10;63.20;;;14.41;100.00;95568.69;5033081;28;19986;-47
2023/09/01 06:24:53;;;;;;;;;;;19.30;63.00;;;14.60;100.00;95568.72;5027875;28;20004;-49
2023/09/01 06:27:18;;;;;;;;;;;19.50;62.90;;;14.78;100.00;95567.13;5029365;28;20011;-47
2023/09/01 06:29:44;;;;;;;;;;;19.70;62.90;;;14.90;100.00;95572.03;5021896;28;20054;-47
2023/09/01 06:32:11;;;;;;;;;;;19.90;62.70;;;15.10;100.00;95581.66;5031604;28;20286;-47
2023/09/01 06:34:38;;;;;;;;;;;20.00;62.50;;;15.30;100.00;95580.53;5019477;28;19919;-50
2023/09/01 06:37:04;;;;;;;;;;;20.30;63.20;;;15.47;100.00;95578.88;5040764;28;19965;-51
2023/09/01 06:39:30;;;;;;;;;;;20.50;62.20;;;15.66;100.00;95580.69;5022033;28;20007;-53
2023/09/01 06:41:57;;;;;;;;;;;20.70;62.00;;;15.85;100.00;95589.50;5021722;28;20047;-54
2023/09/01 06:44:23;;;;;;;;;;;20.80;61.80;;;16.02;96.94;95593.50;5019326;28;19910;-52
2023/09/01 06:46:49;;;;;;;;;;;21.00;61.60;;;16.17;99.36;95588.63;5022364;28;19913;-53
2023/09/01 06:49:15;;;;;;;;;;;21.30;61.40;;;16.33;96.20;95580.25;5029216;28;20294;-54
2023/09/01 06:51:42;;;;;;;;;;;21.40;61.10;;;16.51;91.41;95584.66;5021728;28;20066;-54
2023/09/01 06:54:08;;;;;;;;;;;21.70;60.80;;;16.70;88.42;95589.91;5027394;28;19913;-49
2023/09/01 06:56:33;;;;;;;;;;;21.90;60.50;;;17.01;87.11;95590.03;5020997;28;19909;-48
2023/09/01 06:58:59;;;;;;;;;;;22.40;60.20;;;17.35;83.35;95589.50;5025266;28;19944;-53
2023/09/01 07:01:27;;;;;;;;;;;22.80;59.80;;;17.80;81.92;95589.47;5024539;28;19962;-47
2023/09/01 07:03:54;;;;;;;;;;;23.20;59.40;;;18.07;78.98;95590.34;5031330;28;19931;-47
2023/09/01 07:06:20;;;;;;;;;;;23.70;59.20;;;18.47;75.19;95590.31;5023354;28;19917;-51
2023/09/01 07:08:46;;;;;;;;;;;24.10;58.80;;;18.94;73.42;95593.25;5018269;28;19916;-47
2023/09/01 07:11:14;;;;;;;;;;;24.50;58.30;;;19.27;70.17;95587.34;5020756;28;19942;-48
2023/09/01 07:13:41;;;;;;;;;;;24.90;57.60;;;19.69;69.28;95599.22;5024754;28;20363;-49
2023/09/01 07:16:07;;;;;;;;;;;25.30;57.20;;;19.84;66.86;95596.00;5023833;28;20274;-48
2023/09/01 07:18:33;;;;;;;;;;;25.50;56.90;;;20.13;67.17;95607.19;5017222;28;19909;-47
2023/09/01 07:21:00;;;;;;;;;;;25.80;56.60;;;20.49;65.40;95593.94;5032162;28;19909;-51
2023/09/01 07:23:27;;;;;;;;;;;26.10;56.20;;;20.68;64.15;95590.88;5031879;28;19912;-52
2023/09/01 07:25:53;;;;;;;;;;;26.30;55.80;;;20.95;64.50;95594.16;5031085;28;19944;-50
2023/09/01 07:28:20;;;;;;;;;;;26.50;55.40;;;21.26;63.62;95599.94;5017890;28;19909;-49
2023/09/01 07:30:46;;;;;;;;;;;26.80;55.20;;;21.60;62.45;95594.59;5024733;28;19958;-50
2023/09/01 07:33:11;;;;;;;;;;;27.20;55.00;;;21.74;61.42;95595.06;5023298;28;20397;-49
2023/09/01 07:35:37;;;;;;;;;;;27.50;54.60;;;22.05;59.77;95593.75;5025340;28;19919;-51
2023/09/01 07:38:03;;;;;;;;;;;27.90;54.90;;;22.24;58.39;95591.31;5025605;28;19965;-47
2023/09/01 07:40:33;;;;;;;;;;;28.20;53.90;;;22.50;58.38;95601.03;5025223;28;19916;-47
2023/09/01 07:43:00;;;;;;;;;;;28.50;53.50;;;22.89;58.23;95594.06;5011760;28;19924;-50
2023/09/01 07:45:27;;;;;;;;;;;28.90;53.20;;;23.04;57.26;95601.53;5026502;28;19909;-50
2023/09/01 07:47:53;;;;;;;;;;;29.20;52.80;;;23.28;57.75;95599.88;5030971;28;19959;-53
2023/09/01 07:50:20;;;;;;;;;;;29.50;52.20;;;23.58;54.30;95610.41;5028088;28;19989;-48
2023/09/01 07:52:46;;;;;;;;;;;29.70;51.90;;;23.83;53.43;95605.66;5019875;28;19913;-50
2023/09/01 07:55:12;;;;;;;;;;;30.00;51.60;;;24.02;52.72;95608.47;5030505;28;19916;-48
2023/09/01 07:57:37;;;;;;;;;;;30.30;51.20;;;24.12;51.38;95607.16;5022436;28;20002;-51
2023/09/01 08:00:07;;;;;;;;;;;30.50;50.70;;;23.94;51.22;95609.44;5025460;28;19909;-51
2023/09/01 08:02:34;;;;;;;;;;;30.60;49.80;;;24.12;53.90;95613.38;5031130;28;20008;-49
2023/09/01 08:05:03;;;;;;;;;;;30.60;49.30;;;23.81;52.71;95614.16;5031046;28;19916;-50
2023/09/01 08:07:30;;;;;;;;;;;30.70;49.20;;;23.71;52.50;95618.16;5020622;28;19920;-51
2023/09/01 08:09:57;;;;;;;;;;;30.70;49.00;;;23.89;52.90;95615.13;5027731;28;19909;-49
2023/09/01 08:12:23;;;;;;;;;;;30.60;48.60;;;23.91;51.90;95619.09;5030184;28;19912;-51
2023/09/01 08:14:49;;;;;;;;;;;30.60;48.40;;;24.20;51.58;95619.81;5017686;28;19908;-47
2023/09/01 08:17:15;;;;;;;;;;;30.60;48.10;;;24.49;49.23;95629.50;5030947;28;20413;-50
2023/09/01 08:19:40;;;;;;;;;;;30.70;48.10;;;24.68;49.76;95629.53;5029980;28;19916;-49
2023/09/01 08:22:08;;;;;;;;;;;30.80;48.00;;;24.70;49.35;95624.53;5030889;28;19924;-48
2023/09/01 08:24:34;;;;;;;;;;;31.10;47.80;;;25.01;49.63;95631.06;5030143;28;20283;-48
2023/09/01 08:27:01;;;;;;;;;;;31.40;47.60;;;25.16;49.89;95626.72;5028631;28;19916;-50
2023/09/01 08:29:30;;;;;;;;;;;31.70;47.30;;;25.29;47.30;95614.56;5015257;28;20493;-48
2023/09/01 08:31:56;;;;;;;;;;;31.60;47.00;;;25.32;48.12;95616.56;5020128;28;19934;-52
2023/09/01 08:34:22;;;;;;;;;;;31.50;46.80;;;25.09;49.28;95629.28;5026685;28;19912;-53
2023/09/01 08:36:48;;;;;;;;;;;31.30;46.50;;;24.98;48.85;95622.81;5029993;28;19935;-49
2023/09/01 08:39:15;;;;;;;;;;;31.20;46.60;;;24.74;48.77;95632.78;5017288;28;20384;-50
2023/09/01 08:41:42;;;;;;;;;;;31.00;46.60;;;24.38;49.78;95629.22;5029872;28;19915;-48
2023/09/01 08:44:12;;;;;;;;;;;30.90;46.60;;;24.44;50.25;95632.47;5016507;28;20062;-47
2023/09/01 08:46:39;;;;;;;;;;;30.70;46.60;;;24.45;49.81;95628.63;5030706;28;19920;-54
2023/09/01 08:49:05;;;;;;;;;;;30.70;47.10;;;24.48;48.40;95632.56;5019641;28;20282;-47
2023/09/01 08:51:32;;;;;;;;;;;30.70;46.40;;;24.27;50.89;95630.09;5020349;28;20393;-50
2023/09/01 08:53:59;;;;;;;;;;;30.70;45.80;;;24.33;51.17;95634.91;5027221;28;19999;-55
2023/09/01 08:56:24;;;;;;;;;;;30.70;46.00;;;24.31;49.62;95641.84;5030476;28;19936;-50
2023/09/01 08:58:50;;;;;;;;;;;30.70;46.00;;;24.39;48.51;95630.00;5029837;28;19948;-51
2023/09/01 09:01:16;;;;;;;;;;;30.60;45.80;;;24.33;50.04;95628.69;5029922;28;19908;-50
2023/09/01 09:03:42;;;;;;;;;;;30.50;45.90;;;24.44;48.82;95622.38;5012798;28;19991;-49
2023/09/01 09:06:13;;;;;;;;;;;30.60;45.80;;;24.79;48.84;95620.81;5020247;28;19931;-48
2023/09/01 09:08:39;;;;;;;;;;;30.70;45.70;;;25.02;48.79;95626.41;5016529;28;19909;-50
2023/09/01 09:11:15;;;;;;;;;;;30.90;45.60;;;25.14;46.68;95618.91;5030560;28;19909;-55
2023/09/01 09:13:41;;;;;;;;;;;31.10;45.50;;;25.46;46.81;95612.53;5037327;28;19909;-51
2023/09/01 09:16:15;;;;;;;;;;;31.50;45.40;;;25.83;47.94;95619.13;5016846;28;20015;-51
2023/09/01 09:18:47;;;;;;;;;;;31.80;45.10;;;25.79;46.77;95620.19;5021986;28;19913;-49
2023/09/01 09:21:30;;;;;;;;;;;32.20;44.80;;;25.74;45.68;95615.03;5024727;28;20011;-48
2023/09/01 09:24:02;;;;;;;;;;;32.60;44.30;;;25.96;43.44;95605.31;5029844;28;19955;-56
2023/09/01 09:26:32;;;;;;;;;;;32.80;44.00;;;26.04;42.92;95612.47;5023749;28;19956;-51
2023/09/01 09:29:08;;;;;;;;;;;32.90;43.60;;;26.23;41.28;95595.25;5016159;28;19954;-51
2023/09/01 09:31:39;;;;;;;;;;;33.10;42.80;;;26.66;40.30;95604.16;5029084;28;20375;-53
2023/09/01 09:34:25;;;;;;;;;;;33.30;42.30;;;26.77;41.06;95607.84;5030018;28;19951;-55
2023/09/01 09:36:51;;;;;;;;;;;33.50;41.40;;;26.85;39.72;95604.03;5036192;28;20321;-50
2023/09/01 09:39:22;;;;;;;;;;;33.70;40.60;;;26.88;40.79;95607.97;5033101;28;19912;-49
2023/09/01 09:41:48;;;;;;;;;;;33.90;40.50;;;26.94;40.30;95601.03;5030252;28;19909;-53
2023/09/01 09:44:33;;;;;;;;;;;34.00;39.50;;;27.50;39.78;95607.63;5015984;28;19908;-50
2023/09/01 09:47:09;;;;;;;;;;;34.20;39.60;;;27.86;38.84;95603.34;5030130;28;20295;-51
2023/09/01 09:49:39;;;;;;;;;;;34.40;39.70;;;28.08;38.08;95605.16;5020939;28;20003;-53
2023/09/01 09:52:09;;;;;;;;;;;34.70;39.30;;;28.10;38.85;95607.50;5026878;28;20363;-50
2023/09/01 09:54:38;;;;;;;;;;;34.90;38.80;;;28.11;37.83;95607.13;5032825;28;19999;-53
2023/09/01 09:57:13;;;;;;;;;;;35.10;38.70;;;28.39;38.25;95603.06;5032640;28;20299;-50
2023/09/01 09:59:53;;;;;;;;;;;35.30;38.20;;;28.53;37.80;95610.63;5020993;28;19909;-52
2023/09/01 10:02:50;;;;;;;;;;;35.60;37.80;;;28.68;36.89;95606.84;5007801;28;19913;-54
2023/09/01 10:05:18;;;;;;;;;;;35.90;37.80;;;28.65;36.06;95598.59;5017505;28;19962;-48
2023/09/01 10:07:44;;;;;;;;;;;35.90;37.60;;;28.63;36.94;95595.44;5020222;28;19913;-51
2023/09/01 10:10:12;;;;;;;;;;;36.00;37.10;;;29.09;37.19;95605.94;5031581;28;19916;-54
2023/09/01 10:12:38;;;;;;;;;;;36.10;37.10;;;29.20;38.00;95601.28;5024892;28;19909;-52
2023/09/01 10:15:06;;;;;;;;;;;36.20;37.70;;;29.14;37.11;95595.38;5019736;28;19909;-56
2023/09/01 10:17:34;;;;;;;;;;;36.20;37.30;;;29.17;37.39;95597.34;5040448;28;20424;-52
2023/09/01 10:20:04;;;;;;;;;;;36.10;37.20;;;28.77;35.34;95593.59;5032215;28;19909;-52
2023/09/01 10:22:31;;;;;;;;;;;36.00;37.00;;;28.89;36.82;95597.94;5033125;28;19913;-51
2023/09/01 10:25:17;;;;;;;;;;;35.80;37.00;;;28.61;37.40;95593.06;5025153;28;19945;-48
2023/09/01 10:28:13;;;;;;;;;;;35.50;36.70;;;28.50;37.91;95584.78;5020702;28;19951;-53
2023/09/01 10:30:43;;;;;;;;;;;35.10;36.70;;;28.40;39.04;95582.75;5031103;28;19912;-54
2023/09/01 10:33:15;;;;;;;;;;;34.80;36.90;;;28.27;38.91;95573.25;5012936;28;19920;-48
2023/09/01 10:35:52;;;;;;;;;;;34.50;37.10;;;28.11;39.44;95570.75;5026873;28;19943;-50
2023/09/01 10:38:35;;;;;;;;;;;34.30;37.40;;;27.91;37.94;95570.97;5031946;28;20007;-49
2023/09/01 10:41:02;;;;;;;;;;;34.30;37.10;;;28.10;37.64;95572.69;5032952;28;20046;-48
2023/09/01 10:43:34;;;;;;;;;;;34.40;37.10;;;28.09;37.70;95565.66;5030227;28;19917;-52
2023/09/01 10:46:14;;;;;;;;;;;34.40;37.00;;;28.29;37.34;95562.69;5032959;28;20046;-55
2023/09/01 10:49:12;;;;;;;;;;;34.40;37.00;;;28.13;37.38;95565.69;5029440;28;27801;-49
2023/09/01 10:51:39;;;;;;;;;;;34.60;37.20;;;27.94;37.26;95569.44;5020351;28;19935;-52
2023/09/01 10:54:14;;;;;;;;;;;34.60;37.10;;;27.93;38.02;95564.34;5031305;28;19908;-49
2023/09/01 10:57:12;;;;;;;;;;;34.50;37.00;;;27.73;38.01;95561.75;5032428;28;19916;-50
2023/09/01 10:59:38;;;;;;;;;;;34.50;37.10;;;27.66;38.02;95561.69;5000710;28;19970;-49
2023/09/01 11:02:22;;;;;;;;;;;34.40;36.90;;;28.13;37.93;95555.50;5041693;28;19917;-50
2023/09/01 11:04:49;;;;;;;;;;;34.70;36.80;;;28.86;38.39;95554.84;5031409;28;19915;-48
2023/09/01 11:07:15;;;;;;;;;;;35.30;36.80;;;29.10;35.85;95550.72;5023649;28;19909;-48
2023/09/01 11:09:44;;;;;;;;;;;35.90;36.70;;;29.39;35.26;95546.09;5012931;28;19917;-49
2023/09/01 11:12:12;;;;;;;;;;;36.40;36.50;;;29.58;36.05;95553.22;5031382;28;19955;-48
2023/09/01 11:14:55;;;;;;;;;;;36.80;35.80;;;29.48;35.29;95549.28;5018613;28;19910;-52
2023/09/01 11:17:39;;;;;;;;;;;37.10;34.40;;;29.73;34.08;95549.38;5031671;28;19943;-51
2023/09/01 11:20:11;;;;;;;;;;;37.10;34.20;;;29.67;34.34;95539.94;5030848;28;19931;-52